sensor_id;sensor_type;location;lat;lon;timestamp;P1;durP1;ratioP1;P2;durP2;ratioP2
54929;SDS011;40833;53.238;6.576;2023-06-19T00:05:36;5.35;;;4.85;;
54929;SDS011;40833;53.238;6.576;2023-06-19T00:15:51;5.50;;;5.00;;
54929;SDS011;40833;53.238;6.576;2023-06-19T00:33:13;5.85;;;5.03;;
54929;SDS011;40833;53.238;6.576;2023-06-19T00:42:01;8.10;;;4.57;;
54929;SDS011;40833;53.238;6.576;2023-06-19T00:52:37;5.10;;;4.70;;
54929;SDS011;40833;53.238;6.576;2023-06-19T01:02:43;5.28;;;4.70;;
54929;SDS011;40833;53.238;6.576;2023-06-19T01:05:09;5.07;;;4.57;;
54929;SDS011;40833;53.238;6.576;2023-06-19T01:16:04;5.00;;;4.50;;
54929;SDS011;40833;53.238;6.576;2023-06-19T01:18:32;7.95;;;4.65;;
54929;SDS011;40833;53.238;6.576;2023-06-19T01:28:05;5.22;;;4.80;;
54929;SDS011;40833;53.238;6.576;2023-06-19T01:30:36;4.43;;;4.10;;
54929;SDS011;40833;53.238;6.576;2023-06-19T01:41:02;7.63;;;5.00;;
54929;SDS011;40833;53.238;6.576;2023-06-19T01:43:30;5.25;;;4.70;;
54929;SDS011;40833;53.238;6.576;2023-06-19T01:59:12;4.90;;;4.50;;
54929;SDS011;40833;53.238;6.576;2023-06-19T02:03:58;5.03;;;4.50;;
54929;SDS011;40833;53.238;6.576;2023-06-19T02:06:24;7.45;;;5.20;;
54929;SDS011;40833;53.238;6.576;2023-06-19T02:14:18;6.93;;;5.07;;
54929;SDS011;40833;53.238;6.576;2023-06-19T02:16:44;5.50;;;5.10;;
54929;SDS011;40833;53.238;6.576;2023-06-19T02:24:49;5.13;;;4.72;;
54929;SDS011;40833;53.238;6.576;2023-06-19T02:27:15;8.30;;;4.63;;
54929;SDS011;40833;53.238;6.576;2023-06-19T02:29:41;7.22;;;4.97;;
54929;SDS011;40833;53.238;6.576;2023-06-19T02:39:06;6.38;;;5.10;;
54929;SDS011;40833;53.238;6.576;2023-06-19T02:41:32;7.03;;;5.20;;
54929;SDS011;40833;53.238;6.576;2023-06-19T02:43:57;5.25;;;4.85;;
54929;SDS011;40833;53.238;6.576;2023-06-19T02:52:32;6.40;;;5.28;;
54929;SDS011;40833;53.238;6.576;2023-06-19T02:54:58;7.47;;;4.80;;
54929;SDS011;40833;53.238;6.576;2023-06-19T02:59:33;6.85;;;5.45;;
54929;SDS011;40833;53.238;6.576;2023-06-19T03:06:43;6.20;;;5.38;;
54929;SDS011;40833;53.238;6.576;2023-06-19T03:09:09;5.90;;;5.47;;
54929;SDS011;40833;53.238;6.576;2023-06-19T03:11:40;5.15;;;4.75;;
54929;SDS011;40833;53.238;6.576;2023-06-19T03:14:07;5.28;;;4.88;;
54929;SDS011;40833;53.238;6.576;2023-06-19T03:16:34;5.63;;;5.22;;
54929;SDS011;40833;53.238;6.576;2023-06-19T03:19:00;5.80;;;5.18;;
54929;SDS011;40833;53.238;6.576;2023-06-19T03:21:26;6.53;;;5.47;;
54929;SDS011;40833;53.238;6.576;2023-06-19T03:30:10;7.63;;;5.65;;
54929;SDS011;40833;53.238;6.576;2023-06-19T03:32:38;6.13;;;5.53;;
54929;SDS011;40833;53.238;6.576;2023-06-19T03:35:03;7.82;;;5.32;;
54929;SDS011;40833;53.238;6.576;2023-06-19T03:37:30;7.63;;;5.15;;
54929;SDS011;40833;53.238;6.576;2023-06-19T03:42:30;5.28;;;4.88;;
54929;SDS011;40833;53.238;6.576;2023-06-19T03:44:56;8.20;;;5.50;;
54929;SDS011;40833;53.238;6.576;2023-06-19T03:47:21;7.15;;;5.35;;
54929;SDS011;40833;53.238;6.576;2023-06-19T03:49:47;5.55;;;5.00;;
54929;SDS011;40833;53.238;6.576;2023-06-19T03:52:13;5.88;;;5.47;;
54929;SDS011;40833;53.238;6.576;2023-06-19T03:54:39;7.75;;;5.68;;
54929;SDS011;40833;53.238;6.576;2023-06-19T03:57:05;5.50;;;5.00;;
54929;SDS011;40833;53.238;6.576;2023-06-19T03:59:31;7.00;;;5.63;;
54929;SDS011;40833;53.238;6.576;2023-06-19T04:01:57;5.65;;;5.15;;
54929;SDS011;40833;53.238;6.576;2023-06-19T04:04:22;7.18;;;5.82;;
54929;SDS011;40833;53.238;6.576;2023-06-19T04:08:19;7.20;;;5.68;;
54929;SDS011;40833;53.238;6.576;2023-06-19T04:10:45;6.20;;;5.60;;
54929;SDS011;40833;53.238;6.576;2023-06-19T04:13:11;6.10;;;4.60;;
54929;SDS011;40833;53.238;6.576;2023-06-19T04:15:37;8.10;;;5.30;;
54929;SDS011;40833;53.238;6.576;2023-06-19T04:18:03;8.05;;;5.20;;
54929;SDS011;40833;53.238;6.576;2023-06-19T04:20:29;5.72;;;4.63;;
54929;SDS011;40833;53.238;6.576;2023-06-19T04:22:54;7.78;;;4.80;;
54929;SDS011;40833;53.238;6.576;2023-06-19T04:25:20;5.88;;;5.18;;
54929;SDS011;40833;53.238;6.576;2023-06-19T04:27:46;8.02;;;4.93;;
54929;SDS011;40833;53.238;6.576;2023-06-19T04:30:11;6.30;;;5.07;;
54929;SDS011;40833;53.238;6.576;2023-06-19T04:32:37;5.47;;;4.88;;
54929;SDS011;40833;53.238;6.576;2023-06-19T04:35:06;8.40;;;5.13;;
54929;SDS011;40833;53.238;6.576;2023-06-19T04:37:33;8.52;;;5.13;;
54929;SDS011;40833;53.238;6.576;2023-06-19T04:39:58;5.55;;;4.43;;
54929;SDS011;40833;53.238;6.576;2023-06-19T04:42:25;6.43;;;5.07;;
54929;SDS011;40833;53.238;6.576;2023-06-19T04:44:51;6.28;;;5.13;;
54929;SDS011;40833;53.238;6.576;2023-06-19T04:47:19;5.55;;;5.05;;
54929;SDS011;40833;53.238;6.576;2023-06-19T04:49:48;6.97;;;4.35;;
54929;SDS011;40833;53.238;6.576;2023-06-19T04:52:14;4.45;;;4.15;;
54929;SDS011;40833;53.238;6.576;2023-06-19T04:54:39;4.13;;;3.72;;
54929;SDS011;40833;53.238;6.576;2023-06-19T04:57:05;8.50;;;4.35;;
54929;SDS011;40833;53.238;6.576;2023-06-19T04:59:34;3.83;;;3.53;;
54929;SDS011;40833;53.238;6.576;2023-06-19T05:01:59;4.57;;;3.30;;
54929;SDS011;40833;53.238;6.576;2023-06-19T05:04:25;6.07;;;3.80;;
54929;SDS011;40833;53.238;6.576;2023-06-19T05:06:51;7.35;;;3.30;;
54929;SDS011;40833;53.238;6.576;2023-06-19T05:09:17;2.80;;;2.70;;
54929;SDS011;40833;53.238;6.576;2023-06-19T05:11:43;4.43;;;3.33;;
54929;SDS011;40833;53.238;6.576;2023-06-19T05:14:09;3.45;;;3.15;;
54929;SDS011;40833;53.238;6.576;2023-06-19T05:16:36;3.53;;;3.22;;
54929;SDS011;40833;53.238;6.576;2023-06-19T05:19:02;4.07;;;3.30;;
54929;SDS011;40833;53.238;6.576;2023-06-19T05:21:27;4.13;;;3.22;;
54929;SDS011;40833;53.238;6.576;2023-06-19T05:23:53;5.80;;;3.50;;
54929;SDS011;40833;53.238;6.576;2023-06-19T05:26:19;5.38;;;3.40;;
54929;SDS011;40833;53.238;6.576;2023-06-19T05:28:45;3.75;;;2.85;;
54929;SDS011;40833;53.238;6.576;2023-06-19T05:31:11;3.50;;;3.20;;
54929;SDS011;40833;53.238;6.576;2023-06-19T05:33:37;4.47;;;3.10;;
54929;SDS011;40833;53.238;6.576;2023-06-19T05:36:03;3.22;;;2.97;;
54929;SDS011;40833;53.238;6.576;2023-06-19T05:38:29;2.95;;;2.80;;
54929;SDS011;40833;53.238;6.576;2023-06-19T05:40:56;6.65;;;3.10;;
54929;SDS011;40833;53.238;6.576;2023-06-19T05:43:22;3.20;;;3.00;;
54929;SDS011;40833;53.238;6.576;2023-06-19T05:45:49;3.47;;;3.20;;
54929;SDS011;40833;53.238;6.576;2023-06-19T05:48:15;4.47;;;3.00;;
54929;SDS011;40833;53.238;6.576;2023-06-19T05:50:41;3.72;;;3.42;;
54929;SDS011;40833;53.238;6.576;2023-06-19T05:53:07;3.60;;;3.28;;
54929;SDS011;40833;53.238;6.576;2023-06-19T05:55:33;4.18;;;3.88;;
54929;SDS011;40833;53.238;6.576;2023-06-19T05:57:59;5.80;;;4.22;;
54929;SDS011;40833;53.238;6.576;2023-06-19T06:00:25;4.70;;;4.30;;
54929;SDS011;40833;53.238;6.576;2023-06-19T06:02:52;4.80;;;4.40;;
54929;SDS011;40833;53.238;6.576;2023-06-19T06:05:18;5.22;;;4.18;;
54929;SDS011;40833;53.238;6.576;2023-06-19T06:07:45;8.15;;;5.07;;
54929;SDS011;40833;53.238;6.576;2023-06-19T06:10:11;8.00;;;5.20;;
54929;SDS011;40833;53.238;6.576;2023-06-19T06:12:37;6.65;;;4.60;;
54929;SDS011;40833;53.238;6.576;2023-06-19T06:15:03;6.28;;;4.63;;
54929;SDS011;40833;53.238;6.576;2023-06-19T06:17:30;5.85;;;5.05;;
54929;SDS011;40833;53.238;6.576;2023-06-19T06:19:56;6.47;;;5.72;;
54929;SDS011;40833;53.238;6.576;2023-06-19T06:22:22;6.40;;;5.80;;
54929;SDS011;40833;53.238;6.576;2023-06-19T06:24:47;7.40;;;6.28;;
54929;SDS011;40833;53.238;6.576;2023-06-19T06:27:13;6.57;;;5.95;;
54929;SDS011;40833;53.238;6.576;2023-06-19T06:29:39;7.07;;;5.53;;
54929;SDS011;40833;53.238;6.576;2023-06-19T06:32:05;5.82;;;5.32;;
54929;SDS011;40833;53.238;6.576;2023-06-19T06:34:35;9.05;;;5.30;;
54929;SDS011;40833;53.238;6.576;2023-06-19T06:37:01;9.68;;;5.55;;
54929;SDS011;40833;53.238;6.576;2023-06-19T06:39:27;9.30;;;5.82;;
54929;SDS011;40833;53.238;6.576;2023-06-19T06:41:53;6.13;;;5.63;;
54929;SDS011;40833;53.238;6.576;2023-06-19T06:44:18;10.40;;;6.25;;
54929;SDS011;40833;53.238;6.576;2023-06-19T06:46:44;5.97;;;5.10;;
54929;SDS011;40833;53.238;6.576;2023-06-19T06:49:11;5.35;;;4.85;;
54929;SDS011;40833;53.238;6.576;2023-06-19T06:51:36;5.53;;;4.97;;
54929;SDS011;40833;53.238;6.576;2023-06-19T06:54:02;6.78;;;4.97;;
54929;SDS011;40833;53.238;6.576;2023-06-19T06:56:28;4.47;;;4.18;;
54929;SDS011;40833;53.238;6.576;2023-06-19T06:58:54;7.65;;;4.78;;
54929;SDS011;40833;53.238;6.576;2023-06-19T07:01:20;8.98;;;5.68;;
54929;SDS011;40833;53.238;6.576;2023-06-19T07:03:45;4.68;;;4.30;;
54929;SDS011;40833;53.238;6.576;2023-06-19T07:06:11;5.03;;;4.07;;
54929;SDS011;40833;53.238;6.576;2023-06-19T07:08:37;6.60;;;5.35;;
54929;SDS011;40833;53.238;6.576;2023-06-19T07:11:06;5.97;;;5.40;;
54929;SDS011;40833;53.238;6.576;2023-06-19T07:13:32;8.25;;;6.05;;
54929;SDS011;40833;53.238;6.576;2023-06-19T07:15:57;10.52;;;6.18;;
54929;SDS011;40833;53.238;6.576;2023-06-19T07:18:24;6.97;;;6.38;;
54929;SDS011;40833;53.238;6.576;2023-06-19T07:20:50;11.60;;;7.93;;
54929;SDS011;40833;53.238;6.576;2023-06-19T07:23:15;9.65;;;7.45;;
54929;SDS011;40833;53.238;6.576;2023-06-19T07:25:41;10.02;;;7.30;;
54929;SDS011;40833;53.238;6.576;2023-06-19T07:28:08;7.22;;;6.63;;
54929;SDS011;40833;53.238;6.576;2023-06-19T07:30:33;9.15;;;7.47;;
54929;SDS011;40833;53.238;6.576;2023-06-19T07:32:59;8.98;;;8.15;;
54929;SDS011;40833;53.238;6.576;2023-06-19T07:35:25;10.23;;;9.23;;
54929;SDS011;40833;53.238;6.576;2023-06-19T07:37:51;13.38;;;10.70;;
54929;SDS011;40833;53.238;6.576;2023-06-19T07:40:16;18.20;;;12.07;;
54929;SDS011;40833;53.238;6.576;2023-06-19T07:42:42;15.57;;;12.32;;
54929;SDS011;40833;53.238;6.576;2023-06-19T07:45:08;14.85;;;12.45;;
54929;SDS011;40833;53.238;6.576;2023-06-19T07:47:35;18.63;;;14.18;;
54929;SDS011;40833;53.238;6.576;2023-06-19T07:50:00;16.17;;;12.57;;
54929;SDS011;40833;53.238;6.576;2023-06-19T07:52:26;18.95;;;15.07;;
54929;SDS011;40833;53.238;6.576;2023-06-19T07:54:53;17.35;;;13.13;;
54929;SDS011;40833;53.238;6.576;2023-06-19T07:57:20;17.02;;;13.30;;
54929;SDS011;40833;53.238;6.576;2023-06-19T07:59:48;18.73;;;14.48;;
54929;SDS011;40833;53.238;6.576;2023-06-19T08:02:14;18.05;;;15.07;;
54929;SDS011;40833;53.238;6.576;2023-06-19T08:04:40;18.60;;;15.07;;
54929;SDS011;40833;53.238;6.576;2023-06-19T08:07:06;17.10;;;13.27;;
54929;SDS011;40833;53.238;6.576;2023-06-19T08:09:32;19.80;;;13.57;;
54929;SDS011;40833;53.238;6.576;2023-06-19T08:11:57;17.20;;;12.48;;
54929;SDS011;40833;53.238;6.576;2023-06-19T08:14:23;17.70;;;12.15;;
54929;SDS011;40833;53.238;6.576;2023-06-19T08:16:49;17.27;;;11.77;;
54929;SDS011;40833;53.238;6.576;2023-06-19T08:19:14;15.10;;;11.82;;
54929;SDS011;40833;53.238;6.576;2023-06-19T08:21:40;14.85;;;11.65;;
54929;SDS011;40833;53.238;6.576;2023-06-19T08:24:06;17.85;;;11.13;;
54929;SDS011;40833;53.238;6.576;2023-06-19T08:26:32;12.20;;;10.15;;
54929;SDS011;40833;53.238;6.576;2023-06-19T08:28:57;14.10;;;9.27;;
54929;SDS011;40833;53.238;6.576;2023-06-19T08:31:23;9.98;;;8.68;;
54929;SDS011;40833;53.238;6.576;2023-06-19T08:33:55;9.30;;;7.82;;
54929;SDS011;40833;53.238;6.576;2023-06-19T08:36:21;10.40;;;7.68;;
54929;SDS011;40833;53.238;6.576;2023-06-19T08:38:47;10.65;;;7.43;;
54929;SDS011;40833;53.238;6.576;2023-06-19T08:41:17;8.82;;;7.43;;
54929;SDS011;40833;53.238;6.576;2023-06-19T08:43:47;12.07;;;6.72;;
54929;SDS011;40833;53.238;6.576;2023-06-19T08:46:16;7.75;;;6.05;;
54929;SDS011;40833;53.238;6.576;2023-06-19T08:48:43;6.97;;;6.13;;
54929;SDS011;40833;53.238;6.576;2023-06-19T08:51:09;7.68;;;5.75;;
54929;SDS011;40833;53.238;6.576;2023-06-19T08:53:36;6.47;;;5.40;;
54929;SDS011;40833;53.238;6.576;2023-06-19T08:56:29;6.82;;;5.47;;
54929;SDS011;40833;53.238;6.576;2023-06-19T08:59:07;8.38;;;5.30;;
54929;SDS011;40833;53.238;6.576;2023-06-19T09:01:45;6.63;;;4.40;;
54929;SDS011;40833;53.238;6.576;2023-06-19T09:04:17;7.63;;;4.57;;
54929;SDS011;40833;53.238;6.576;2023-06-19T09:09:20;6.75;;;4.68;;
54929;SDS011;40833;53.238;6.576;2023-06-19T09:12:03;7.70;;;5.00;;
54929;SDS011;40833;53.238;6.576;2023-06-19T09:14:33;9.50;;;4.10;;
54929;SDS011;40833;53.238;6.576;2023-06-19T15:54:37;4.13;;;3.30;;
54929;SDS011;40833;53.238;6.576;2023-06-19T15:57:04;2.72;;;2.53;;
54929;SDS011;40833;53.238;6.576;2023-06-19T15:59:30;3.45;;;2.67;;
54929;SDS011;40833;53.238;6.576;2023-06-19T16:01:56;6.32;;;3.40;;
54929;SDS011;40833;53.238;6.576;2023-06-19T16:09:25;4.53;;;2.95;;
54929;SDS011;40833;53.238;6.576;2023-06-19T16:11:51;3.25;;;2.95;;
54929;SDS011;40833;53.238;6.576;2023-06-19T16:14:17;2.75;;;2.50;;
54929;SDS011;40833;53.238;6.576;2023-06-19T16:19:12;2.92;;;2.55;;
54929;SDS011;40833;53.238;6.576;2023-06-19T16:21:38;6.15;;;3.03;;
54929;SDS011;40833;53.238;6.576;2023-06-19T16:24:04;3.65;;;2.67;;
54929;SDS011;40833;53.238;6.576;2023-06-19T16:26:29;3.85;;;2.45;;
54929;SDS011;40833;53.238;6.576;2023-06-19T16:28:55;4.15;;;3.03;;
54929;SDS011;40833;53.238;6.576;2023-06-19T16:31:21;2.95;;;2.67;;
54929;SDS011;40833;53.238;6.576;2023-06-19T16:33:46;4.13;;;2.53;;
54929;SDS011;40833;53.238;6.576;2023-06-19T16:36:12;5.03;;;2.20;;
54929;SDS011;40833;53.238;6.576;2023-06-19T16:38:38;4.18;;;2.20;;
54929;SDS011;40833;53.238;6.576;2023-06-19T16:41:03;2.55;;;2.17;;
54929;SDS011;40833;53.238;6.576;2023-06-19T16:43:29;6.70;;;2.53;;
54929;SDS011;40833;53.238;6.576;2023-06-19T16:45:55;4.03;;;2.63;;
54929;SDS011;40833;53.238;6.576;2023-06-19T16:48:20;3.88;;;2.00;;
54929;SDS011;40833;53.238;6.576;2023-06-19T16:50:46;2.83;;;2.28;;
54929;SDS011;40833;53.238;6.576;2023-06-19T16:53:12;2.80;;;2.10;;
54929;SDS011;40833;53.238;6.576;2023-06-19T16:55:38;3.17;;;2.10;;
54929;SDS011;40833;53.238;6.576;2023-06-19T16:58:03;2.13;;;2.00;;
54929;SDS011;40833;53.238;6.576;2023-06-19T17:00:29;2.90;;;2.17;;
54929;SDS011;40833;53.238;6.576;2023-06-19T17:02:55;3.05;;;2.08;;
54929;SDS011;40833;53.238;6.576;2023-06-19T17:05:22;2.70;;;2.50;;
54929;SDS011;40833;53.238;6.576;2023-06-19T17:07:49;2.50;;;2.30;;
54929;SDS011;40833;53.238;6.576;2023-06-19T17:10:15;2.50;;;2.38;;
54929;SDS011;40833;53.238;6.576;2023-06-19T17:12:41;2.38;;;1.77;;
54929;SDS011;40833;53.238;6.576;2023-06-19T17:15:07;2.35;;;1.85;;
54929;SDS011;40833;53.238;6.576;2023-06-19T17:17:33;1.73;;;1.63;;
54929;SDS011;40833;53.238;6.576;2023-06-19T17:19:59;2.30;;;2.10;;
54929;SDS011;40833;53.238;6.576;2023-06-19T17:22:25;2.70;;;2.33;;
54929;SDS011;40833;53.238;6.576;2023-06-19T17:24:50;3.47;;;2.45;;
54929;SDS011;40833;53.238;6.576;2023-06-19T17:27:16;7.03;;;1.98;;
54929;SDS011;40833;53.238;6.576;2023-06-19T17:29:42;3.80;;;2.10;;
54929;SDS011;40833;53.238;6.576;2023-06-19T17:32:08;5.88;;;2.30;;
54929;SDS011;40833;53.238;6.576;2023-06-19T17:34:34;2.22;;;2.03;;
54929;SDS011;40833;53.238;6.576;2023-06-19T17:37:00;2.30;;;2.03;;
54929;SDS011;40833;53.238;6.576;2023-06-19T17:39:27;3.70;;;2.40;;
54929;SDS011;40833;53.238;6.576;2023-06-19T17:41:54;3.13;;;2.60;;
54929;SDS011;40833;53.238;6.576;2023-06-19T17:44:19;3.33;;;2.10;;
54929;SDS011;40833;53.238;6.576;2023-06-19T17:53:21;4.25;;;2.50;;
54929;SDS011;40833;53.238;6.576;2023-06-19T17:55:47;2.20;;;2.10;;
54929;SDS011;40833;53.238;6.576;2023-06-19T17:58:12;2.90;;;2.53;;
54929;SDS011;40833;53.238;6.576;2023-06-19T18:00:38;2.95;;;2.40;;
54929;SDS011;40833;53.238;6.576;2023-06-19T18:03:04;3.45;;;2.60;;
54929;SDS011;40833;53.238;6.576;2023-06-19T18:05:30;5.18;;;2.53;;
54929;SDS011;40833;53.238;6.576;2023-06-19T18:07:56;3.47;;;2.58;;
54929;SDS011;40833;53.238;6.576;2023-06-19T18:10:22;3.88;;;2.28;;
54929;SDS011;40833;53.238;6.576;2023-06-19T19:41:55;5.35;;;4.38;;
54929;SDS011;40833;53.238;6.576;2023-06-19T19:44:21;6.38;;;4.68;;
54929;SDS011;40833;53.238;6.576;2023-06-19T19:46:47;17.90;;;4.60;;
54929;SDS011;40833;53.238;6.576;2023-06-19T19:49:13;8.40;;;4.90;;
54929;SDS011;40833;53.238;6.576;2023-06-19T19:51:38;6.18;;;4.63;;
54929;SDS011;40833;53.238;6.576;2023-06-19T19:54:04;5.35;;;4.38;;
54929;SDS011;40833;53.238;6.576;2023-06-19T19:56:30;7.60;;;4.78;;
54929;SDS011;40833;53.238;6.576;2023-06-19T19:58:55;8.48;;;4.80;;
54929;SDS011;40833;53.238;6.576;2023-06-19T20:01:21;5.32;;;4.32;;
54929;SDS011;40833;53.238;6.576;2023-06-19T20:03:47;6.57;;;5.05;;
54929;SDS011;40833;53.238;6.576;2023-06-19T20:06:13;8.93;;;4.47;;
54929;SDS011;40833;53.238;6.576;2023-06-19T20:08:45;7.03;;;5.40;;
54929;SDS011;40833;53.238;6.576;2023-06-19T20:11:11;7.15;;;5.18;;
54929;SDS011;40833;53.238;6.576;2023-06-19T20:13:37;5.72;;;5.00;;
54929;SDS011;40833;53.238;6.576;2023-06-19T20:16:03;9.70;;;6.45;;
54929;SDS011;40833;53.238;6.576;2023-06-19T20:18:29;6.70;;;5.35;;
54929;SDS011;40833;53.238;6.576;2023-06-19T20:20:55;6.70;;;5.05;;
54929;SDS011;40833;53.238;6.576;2023-06-19T20:23:21;10.43;;;5.15;;
54929;SDS011;40833;53.238;6.576;2023-06-19T20:25:47;10.50;;;5.18;;
54929;SDS011;40833;53.238;6.576;2023-06-19T20:28:12;6.35;;;5.22;;
54929;SDS011;40833;53.238;6.576;2023-06-19T20:30:38;6.88;;;4.88;;
54929;SDS011;40833;53.238;6.576;2023-06-19T20:33:04;9.20;;;5.22;;
54929;SDS011;40833;53.238;6.576;2023-06-19T20:35:30;7.22;;;5.03;;
54929;SDS011;40833;53.238;6.576;2023-06-19T20:37:56;5.72;;;4.95;;
54929;SDS011;40833;53.238;6.576;2023-06-19T20:40:22;6.95;;;5.78;;
54929;SDS011;40833;53.238;6.576;2023-06-19T20:42:49;10.30;;;6.30;;
54929;SDS011;40833;53.238;6.576;2023-06-19T20:45:16;9.38;;;6.03;;
54929;SDS011;40833;53.238;6.576;2023-06-19T20:47:42;9.55;;;5.47;;
54929;SDS011;40833;53.238;6.576;2023-06-19T20:50:07;11.85;;;6.38;;
54929;SDS011;40833;53.238;6.576;2023-06-19T20:52:33;6.28;;;5.70;;
54929;SDS011;40833;53.238;6.576;2023-06-19T20:54:59;8.40;;;5.95;;
54929;SDS011;40833;53.238;6.576;2023-06-19T20:57:24;10.45;;;6.30;;
54929;SDS011;40833;53.238;6.576;2023-06-19T20:59:50;6.85;;;5.68;;
54929;SDS011;40833;53.238;6.576;2023-06-19T21:02:16;9.27;;;5.43;;
54929;SDS011;40833;53.238;6.576;2023-06-19T21:04:41;11.88;;;6.03;;
54929;SDS011;40833;53.238;6.576;2023-06-19T21:07:07;7.97;;;5.43;;
54929;SDS011;40833;53.238;6.576;2023-06-19T21:09:34;7.40;;;5.63;;
54929;SDS011;40833;53.238;6.576;2023-06-19T21:11:59;8.50;;;5.30;;
54929;SDS011;40833;53.238;6.576;2023-06-19T21:14:25;8.18;;;5.68;;
54929;SDS011;40833;53.238;6.576;2023-06-19T21:16:51;8.32;;;5.65;;
54929;SDS011;40833;53.238;6.576;2023-06-19T21:19:17;8.43;;;6.10;;
54929;SDS011;40833;53.238;6.576;2023-06-19T21:21:42;8.35;;;6.25;;
54929;SDS011;40833;53.238;6.576;2023-06-19T21:24:08;7.75;;;5.95;;
54929;SDS011;40833;53.238;6.576;2023-06-19T21:26:34;6.70;;;5.93;;
54929;SDS011;40833;53.238;6.576;2023-06-19T21:29:00;8.52;;;6.35;;
54929;SDS011;40833;53.238;6.576;2023-06-19T21:31:26;7.43;;;6.28;;
54929;SDS011;40833;53.238;6.576;2023-06-19T21:33:52;9.13;;;6.20;;
54929;SDS011;40833;53.238;6.576;2023-06-19T21:36:18;7.95;;;6.85;;
54929;SDS011;40833;53.238;6.576;2023-06-19T21:38:44;8.68;;;6.20;;
54929;SDS011;40833;53.238;6.576;2023-06-19T21:41:10;9.05;;;6.15;;
54929;SDS011;40833;53.238;6.576;2023-06-19T21:43:35;9.05;;;7.50;;
54929;SDS011;40833;53.238;6.576;2023-06-19T21:46:01;8.43;;;6.93;;
54929;SDS011;40833;53.238;6.576;2023-06-19T21:48:27;10.70;;;7.43;;
54929;SDS011;40833;53.238;6.576;2023-06-19T21:50:53;9.82;;;7.10;;
54929;SDS011;40833;53.238;6.576;2023-06-19T21:53:20;10.30;;;7.03;;
54929;SDS011;40833;53.238;6.576;2023-06-19T21:55:46;11.07;;;7.38;;
54929;SDS011;40833;53.238;6.576;2023-06-19T21:58:12;13.85;;;7.30;;
54929;SDS011;40833;53.238;6.576;2023-06-19T22:00:38;12.27;;;7.40;;
54929;SDS011;40833;53.238;6.576;2023-06-19T22:03:04;13.02;;;7.93;;
54929;SDS011;40833;53.238;6.576;2023-06-19T22:05:30;10.43;;;8.05;;
54929;SDS011;40833;53.238;6.576;2023-06-19T22:07:56;9.20;;;7.38;;
54929;SDS011;40833;53.238;6.576;2023-06-19T22:10:22;12.00;;;8.15;;
54929;SDS011;40833;53.238;6.576;2023-06-19T22:12:48;12.05;;;8.52;;
54929;SDS011;40833;53.238;6.576;2023-06-19T22:15:15;13.93;;;8.63;;
54929;SDS011;40833;53.238;6.576;2023-06-19T22:17:40;13.52;;;8.27;;
54929;SDS011;40833;53.238;6.576;2023-06-19T22:20:12;13.68;;;8.23;;
54929;SDS011;40833;53.238;6.576;2023-06-19T22:22:41;18.08;;;9.23;;
54929;SDS011;40833;53.238;6.576;2023-06-19T22:25:07;10.20;;;7.80;;
54929;SDS011;40833;53.238;6.576;2023-06-19T22:27:34;12.13;;;7.53;;
54929;SDS011;40833;53.238;6.576;2023-06-19T22:29:59;11.15;;;7.78;;
54929;SDS011;40833;53.238;6.576;2023-06-19T22:32:25;11.63;;;8.05;;
54929;SDS011;40833;53.238;6.576;2023-06-19T22:34:51;12.20;;;8.50;;
54929;SDS011;40833;53.238;6.576;2023-06-19T22:37:17;10.45;;;9.32;;
54929;SDS011;40833;53.238;6.576;2023-06-19T22:39:44;10.82;;;8.63;;
54929;SDS011;40833;53.238;6.576;2023-06-19T22:42:09;13.18;;;8.10;;
54929;SDS011;40833;53.238;6.576;2023-06-19T22:44:35;10.18;;;8.32;;
54929;SDS011;40833;53.238;6.576;2023-06-19T22:47:01;11.18;;;7.95;;
54929;SDS011;40833;53.238;6.576;2023-06-19T22:49:27;10.65;;;9.05;;
54929;SDS011;40833;53.238;6.576;2023-06-19T22:51:56;9.73;;;8.32;;
54929;SDS011;40833;53.238;6.576;2023-06-19T22:54:22;11.70;;;8.80;;
54929;SDS011;40833;53.238;6.576;2023-06-19T22:56:49;12.10;;;9.00;;
54929;SDS011;40833;53.238;6.576;2023-06-19T22:59:15;11.80;;;8.27;;
54929;SDS011;40833;53.238;6.576;2023-06-19T23:01:41;12.48;;;9.18;;
54929;SDS011;40833;53.238;6.576;2023-06-19T23:04:06;11.73;;;9.30;;
54929;SDS011;40833;53.238;6.576;2023-06-19T23:06:34;12.25;;;9.32;;
54929;SDS011;40833;53.238;6.576;2023-06-19T23:09:10;15.77;;;10.18;;
54929;SDS011;40833;53.238;6.576;2023-06-19T23:11:37;14.32;;;9.88;;
54929;SDS011;40833;53.238;6.576;2023-06-19T23:14:03;13.60;;;9.30;;
54929;SDS011;40833;53.238;6.576;2023-06-19T23:16:29;13.85;;;10.23;;
54929;SDS011;40833;53.238;6.576;2023-06-19T23:18:55;13.82;;;10.20;;
54929;SDS011;40833;53.238;6.576;2023-06-19T23:21:21;12.73;;;10.18;;
54929;SDS011;40833;53.238;6.576;2023-06-19T23:23:47;13.52;;;10.63;;
54929;SDS011;40833;53.238;6.576;2023-06-19T23:26:13;14.55;;;12.00;;
54929;SDS011;40833;53.238;6.576;2023-06-19T23:28:39;13.70;;;10.80;;
54929;SDS011;40833;53.238;6.576;2023-06-19T23:31:05;12.75;;;10.35;;
54929;SDS011;40833;53.238;6.576;2023-06-19T23:33:31;13.43;;;10.68;;
54929;SDS011;40833;53.238;6.576;2023-06-19T23:35:58;16.35;;;11.40;;
54929;SDS011;40833;53.238;6.576;2023-06-19T23:38:24;14.27;;;11.05;;
54929;SDS011;40833;53.238;6.576;2023-06-19T23:40:50;15.23;;;11.40;;
54929;SDS011;40833;53.238;6.576;2023-06-19T23:43:16;16.00;;;11.95;;
54929;SDS011;40833;53.238;6.576;2023-06-19T23:45:43;14.35;;;10.18;;
54929;SDS011;40833;53.238;6.576;2023-06-19T23:48:09;14.35;;;12.02;;
54929;SDS011;40833;53.238;6.576;2023-06-19T23:50:35;13.10;;;10.80;;
54929;SDS011;40833;53.238;6.576;2023-06-19T23:53:00;18.75;;;11.57;;
54929;SDS011;40833;53.238;6.576;2023-06-19T23:55:26;17.92;;;12.27;;
54929;SDS011;40833;53.238;6.576;2023-06-19T23:57:52;16.20;;;11.50;;
